createdAt,value
2023-11-16T00:02:06.007Z,7.65
2023-11-16T00:04:35.733Z,7.52
2023-11-16T00:07:08.050Z,7.44
2023-11-16T00:09:35.447Z,7.66
2023-11-16T00:12:03.617Z,7.74
2023-11-16T00:14:30.153Z,7.76
2023-11-16T00:16:56.719Z,7.78
2023-11-16T00:19:24.891Z,7.67
2023-11-16T00:21:53.084Z,7.68
2023-11-16T00:24:20.996Z,7.58
2023-11-16T00:26:47.542Z,7.66
2023-11-16T00:29:14.404Z,7.73
2023-11-16T00:31:41.051Z,7.70
2023-11-16T00:34:07.637Z,7.69
2023-11-16T00:36:34.350Z,7.67
2023-11-16T00:39:00.994Z,7.71
2023-11-16T00:41:27.614Z,7.74
2023-11-16T00:43:54.686Z,7.87
2023-11-16T00:46:23.248Z,7.75
2023-11-16T00:48:49.906Z,7.82
2023-11-16T00:51:17.351Z,7.80
2023-11-16T00:53:44.221Z,7.81
2023-11-16T00:56:12.100Z,7.68
2023-11-16T00:58:39.531Z,7.76
2023-11-16T01:01:10.647Z,7.82
2023-11-16T01:03:38.272Z,7.35
2023-11-16T01:06:04.968Z,7.73
2023-11-16T01:08:34.844Z,7.61
2023-11-16T01:11:04.502Z,7.85
2023-11-16T01:13:40.181Z,7.67
2023-11-16T01:16:17.355Z,7.54
2023-11-16T01:18:48.114Z,7.56
2023-11-16T01:21:15.599Z,7.72
2023-11-16T01:23:42.529Z,7.59
2023-11-16T01:26:15.328Z,7.68
2023-11-16T01:28:54.729Z,7.61
2023-11-16T01:31:21.616Z,7.70
2023-11-16T01:33:48.822Z,7.74
2023-11-16T01:36:15.560Z,7.78
2023-11-16T01:38:42.417Z,7.70
2023-11-16T01:41:10.185Z,7.81
2023-11-16T01:43:37.816Z,7.81
2023-11-16T01:46:09.959Z,7.98
2023-11-16T01:48:49.462Z,8.06
2023-11-16T01:51:17.853Z,7.98
2023-11-16T01:53:53.253Z,7.98
2023-11-16T01:56:21.199Z,7.83
2023-11-16T01:58:50.781Z,7.94
2023-11-16T02:01:18.217Z,7.96
2023-11-16T02:03:47.963Z,7.93
2023-11-16T02:06:14.738Z,7.96
2023-11-16T02:08:41.358Z,8.06
2023-11-16T02:11:07.943Z,7.81
2023-11-16T02:13:35.609Z,7.90
2023-11-16T02:16:05.421Z,7.89
2023-11-16T02:18:32.001Z,7.69
2023-11-16T02:20:59.184Z,7.62
2023-11-16T02:23:25.883Z,7.54
2023-11-16T02:25:54.455Z,7.78
2023-11-16T02:28:22.372Z,7.61
2023-11-16T02:30:49.224Z,7.69
2023-11-16T02:33:16.071Z,7.70
2023-11-16T02:35:43.283Z,7.68
2023-11-16T02:38:14.017Z,7.66
2023-11-16T02:40:41.402Z,7.60
2023-11-16T02:43:07.953Z,7.60
2023-11-16T02:45:35.460Z,7.74
2023-11-16T02:48:08.577Z,7.79
2023-11-16T02:50:35.796Z,7.77
2023-11-16T02:53:02.619Z,7.84
2023-11-16T02:55:29.144Z,7.65
2023-11-16T02:57:59.377Z,7.77
2023-11-16T03:00:26.639Z,7.72
2023-11-16T03:02:54.953Z,7.67
2023-11-16T03:05:25.183Z,7.62
2023-11-16T03:07:53.762Z,7.79
2023-11-16T03:10:21.057Z,7.71
2023-11-16T03:12:47.604Z,7.62
2023-11-16T03:15:14.716Z,7.66
2023-11-16T03:17:45.401Z,7.64
2023-11-16T03:20:18.041Z,7.51
2023-11-16T03:22:45.650Z,7.27
2023-11-16T03:25:12.632Z,7.45
2023-11-16T03:27:39.338Z,7.48
2023-11-16T03:30:06.667Z,7.53
2023-11-16T03:32:33.423Z,7.46
2023-11-16T03:35:00.314Z,7.53
2023-11-16T03:37:27.774Z,7.52
2023-11-16T03:39:54.677Z,7.41
2023-11-16T03:42:21.719Z,7.47
2023-11-16T03:44:50.820Z,7.40
2023-11-16T03:47:17.480Z,7.49
2023-11-16T03:49:44.240Z,7.62
2023-11-16T03:52:11.273Z,7.54
2023-11-16T03:54:37.949Z,7.64
2023-11-16T03:57:05.162Z,7.75
2023-11-16T03:59:32.886Z,7.78
2023-11-16T04:01:59.591Z,7.82
2023-11-16T04:04:26.386Z,7.80
2023-11-16T04:06:53.047Z,7.82
2023-11-16T04:09:19.589Z,7.80
2023-11-16T04:11:46.445Z,7.65
2023-11-16T04:14:16.363Z,7.62
2023-11-16T04:16:43.035Z,7.46
2023-11-16T04:19:11.482Z,7.60
2023-11-16T04:21:43.309Z,7.49
2023-11-16T04:24:12.562Z,7.55
2023-11-16T04:26:39.746Z,7.57
2023-11-16T04:29:07.791Z,7.49
2023-11-16T04:31:35.604Z,7.53
2023-11-16T04:34:03.034Z,7.31
2023-11-16T04:36:32.858Z,7.53
2023-11-16T04:39:01.169Z,7.53
2023-11-16T04:41:30.028Z,7.56
2023-11-16T04:43:59.259Z,7.66
2023-11-16T04:46:28.873Z,7.65
2023-11-16T04:48:56.624Z,7.67
2023-11-16T04:51:23.688Z,7.70
2023-11-16T04:53:52.170Z,7.57
2023-11-16T04:56:19.071Z,7.70
2023-11-16T04:58:46.385Z,7.61
2023-11-16T05:01:17.814Z,7.73
2023-11-16T05:03:47.522Z,7.59
2023-11-16T05:06:16.310Z,7.72
2023-11-16T05:08:43.182Z,7.64
2023-11-16T05:11:09.905Z,7.70
2023-11-16T05:13:36.558Z,7.74
2023-11-16T05:16:06.700Z,7.65
2023-11-16T05:18:33.696Z,7.58
2023-11-16T05:21:05.389Z,7.57
2023-11-16T05:23:32.050Z,7.48
2023-11-16T05:25:58.650Z,7.41
2023-11-16T05:28:25.310Z,7.41
2023-11-16T05:30:52.119Z,7.45
2023-11-16T05:33:20.537Z,7.46
2023-11-16T05:35:49.994Z,7.33
2023-11-16T05:38:19.402Z,7.41
2023-11-16T05:40:47.934Z,7.35
2023-11-16T05:43:15.083Z,7.32
2023-11-16T05:45:42.664Z,7.29
2023-11-16T05:48:09.882Z,7.21
2023-11-16T05:50:38.024Z,7.23
2023-11-16T05:53:05.044Z,7.20
2023-11-16T05:55:35.448Z,7.08
2023-11-16T05:58:02.640Z,7.11
2023-11-16T06:00:29.693Z,7.20
2023-11-16T06:02:56.507Z,7.22
2023-11-16T06:05:23.512Z,7.27
2023-11-16T06:07:50.225Z,7.16
2023-11-16T06:10:18.622Z,7.22
2023-11-16T06:12:48.424Z,7.21
2023-11-16T06:15:17.280Z,7.16
2023-11-16T06:17:43.928Z,7.10
2023-11-16T06:20:11.920Z,7.10
2023-11-16T06:22:39.942Z,6.97
2023-11-16T06:25:08.606Z,6.97
2023-11-16T06:27:35.180Z,6.79
2023-11-16T06:30:01.785Z,6.73
2023-11-16T06:32:28.893Z,6.79
2023-11-16T06:34:55.928Z,6.56
2023-11-16T06:37:22.722Z,6.67
2023-11-16T06:39:49.362Z,6.67
2023-11-16T06:42:16.020Z,6.79
2023-11-16T06:44:42.548Z,6.76
2023-11-16T06:47:09.867Z,6.81
2023-11-16T06:49:39.148Z,6.90
2023-11-16T06:52:06.592Z,6.90
2023-11-16T06:54:37.417Z,6.90
2023-11-16T06:57:05.661Z,6.63
2023-11-16T06:59:32.244Z,6.74
2023-11-16T07:01:58.897Z,6.73
2023-11-16T07:04:27.482Z,6.72
2023-11-16T07:06:57.473Z,6.72
2023-11-16T07:09:24.466Z,6.92
2023-11-16T07:11:54.401Z,7.14
2023-11-16T07:14:20.893Z,6.95
2023-11-16T07:16:49.180Z,6.91
2023-11-16T07:19:17.634Z,6.94
2023-11-16T07:21:44.320Z,7.07
2023-11-16T07:24:12.619Z,7.03
2023-11-16T07:26:41.132Z,7.09
2023-11-16T07:29:07.666Z,7.04
2023-11-16T07:31:35.388Z,7.04
2023-11-16T07:34:03.971Z,7.00
2023-11-16T07:36:30.747Z,6.97
2023-11-16T07:38:58.966Z,6.91
2023-11-16T07:41:31.979Z,6.79
2023-11-16T07:43:59.576Z,7.08
2023-11-16T07:46:26.230Z,6.96
2023-11-16T07:48:56.004Z,7.27
2023-11-16T07:51:22.884Z,7.54
2023-11-16T07:53:54.722Z,7.61
2023-11-16T07:56:23.915Z,7.42
2023-11-16T07:58:53.562Z,7.44
2023-11-16T08:01:29.509Z,7.39
2023-11-16T08:03:57.257Z,7.38
2023-11-16T08:06:28.390Z,7.35
2023-11-16T08:08:56.408Z,7.40
2023-11-16T08:11:23.373Z,7.35
2023-11-16T08:13:49.974Z,7.32
2023-11-16T08:16:17.735Z,7.33
2023-11-16T08:18:44.580Z,7.33
2023-11-16T08:21:11.861Z,7.29
2023-11-16T08:23:48.776Z,7.63
2023-11-16T08:26:19.940Z,7.67
2023-11-16T08:28:47.935Z,7.69
2023-11-16T08:31:15.808Z,7.69
2023-11-16T08:33:43.887Z,7.70
2023-11-16T08:36:12.323Z,7.68
2023-11-16T08:38:47.760Z,7.74
2023-11-16T08:41:16.408Z,7.71
2023-11-16T08:43:47.675Z,7.51
2023-11-16T08:46:22.688Z,7.79
2023-11-16T08:48:50.391Z,7.48
2023-11-16T08:51:17.727Z,7.58
2023-11-16T08:53:45.600Z,7.94
2023-11-16T08:56:16.667Z,7.69
2023-11-16T08:58:53.624Z,7.56
2023-11-16T09:01:20.355Z,7.63
2023-11-16T09:03:50.732Z,7.45
2023-11-16T09:06:19.640Z,7.68
2023-11-16T09:08:52.767Z,7.74
2023-11-16T09:11:23.519Z,8.00
2023-11-16T09:13:50.389Z,7.96
2023-11-16T09:16:17.004Z,8.01
2023-11-16T09:18:43.744Z,7.84
2023-11-16T09:21:16.188Z,7.82
2023-11-16T09:23:43.603Z,7.91
2023-11-16T09:26:11.001Z,8.00
2023-11-16T09:28:39.810Z,8.25
2023-11-16T09:31:12.045Z,8.51
2023-11-16T09:33:42.044Z,8.63
2023-11-16T09:36:15.200Z,8.52
2023-11-16T09:38:45.420Z,8.29
2023-11-16T09:41:32.650Z,8.20
2023-11-16T09:44:05.658Z,8.30
2023-11-16T09:46:38.269Z,8.13
2023-11-16T09:49:07.574Z,8.21
2023-11-16T09:51:37.731Z,8.57
2023-11-16T09:54:04.564Z,8.62
2023-11-16T09:56:38.810Z,8.53
2023-11-16T09:59:28.777Z,8.95
2023-11-16T10:02:09.880Z,8.89
2023-11-16T10:04:42.598Z,8.98
2023-11-16T10:07:27.069Z,8.76
2023-11-16T10:09:59.152Z,8.77
2023-11-16T10:12:27.108Z,8.80
2023-11-16T10:14:53.852Z,8.62
2023-11-16T10:17:22.759Z,8.55
2023-11-16T10:19:51.707Z,8.74
2023-11-16T10:22:19.043Z,9.11
2023-11-16T10:24:46.178Z,9.58
2023-11-16T10:27:13.036Z,9.85
2023-11-16T10:29:41.026Z,9.91
2023-11-16T10:32:13.400Z,10.11
2023-11-16T10:34:41.193Z,9.81
2023-11-16T10:37:08.711Z,9.65
2023-11-16T10:39:36.347Z,9.43
2023-11-16T10:42:09.302Z,9.31
2023-11-16T10:44:38.974Z,9.03
2023-11-16T10:47:08.628Z,9.25
2023-11-16T10:49:36.291Z,9.44
2023-11-16T10:52:06.841Z,9.42
2023-11-16T10:54:40.970Z,9.34
2023-11-16T10:57:07.561Z,9.35
2023-11-16T10:59:35.299Z,9.23
2023-11-16T11:02:05.132Z,9.25
2023-11-16T11:04:32.834Z,9.17
2023-11-16T11:06:59.674Z,9.07
2023-11-16T11:09:48.382Z,9.25
2023-11-16T11:12:17.036Z,9.25
2023-11-16T11:14:45.152Z,9.22
2023-11-16T11:17:17.208Z,9.10
2023-11-16T11:19:54.343Z,9.27
2023-11-16T11:22:25.457Z,9.32
2023-11-16T11:24:51.993Z,9.44
2023-11-16T11:27:18.819Z,9.58
2023-11-16T11:29:45.575Z,9.74
2023-11-16T11:32:21.433Z,9.85
2023-11-16T11:34:50.270Z,9.75
2023-11-16T11:37:17.231Z,9.83
2023-11-16T11:39:47.381Z,9.83
2023-11-16T11:42:16.451Z,9.97
2023-11-16T11:44:54.334Z,9.71
2023-11-16T11:47:22.108Z,9.83
2023-11-16T11:49:49.635Z,9.98
2023-11-16T11:52:18.144Z,10.04
2023-11-16T11:54:46.563Z,10.23
2023-11-16T11:57:13.685Z,10.16
2023-11-16T11:59:41.677Z,10.01
2023-11-16T12:02:10.236Z,10.00
2023-11-16T12:04:37.926Z,10.32
2023-11-16T12:07:08.729Z,10.22
2023-11-16T12:09:40.293Z,10.01
2023-11-16T12:12:07.635Z,10.31
2023-11-16T12:14:48.119Z,9.85
2023-11-16T12:17:17.261Z,10.08
2023-11-16T12:19:49.807Z,10.19
2023-11-16T12:22:17.477Z,10.18
2023-11-16T12:24:47.343Z,9.97
2023-11-16T12:27:17.992Z,10.14
2023-11-16T12:29:55.731Z,10.16
2023-11-16T12:32:32.672Z,10.17
2023-11-16T12:34:59.767Z,10.10
2023-11-16T12:37:26.716Z,9.96
2023-11-16T12:39:53.797Z,9.90
2023-11-16T12:42:24.662Z,9.94
2023-11-16T12:44:52.211Z,10.08
2023-11-16T12:47:22.457Z,10.01
2023-11-16T12:49:53.540Z,10.00
2023-11-16T12:52:22.705Z,9.98
2023-11-16T12:54:49.804Z,9.90
2023-11-16T12:57:16.593Z,10.04
2023-11-16T12:59:43.093Z,9.95
2023-11-16T13:02:11.710Z,9.94
2023-11-16T13:04:39.755Z,9.84
2023-11-16T13:07:07.077Z,9.65
2023-11-16T13:09:33.684Z,9.68
2023-11-16T13:12:08.285Z,9.68
2023-11-16T13:14:49.008Z,9.77
2023-11-16T13:17:27.205Z,9.68
2023-11-16T13:19:54.634Z,9.57
2023-11-16T13:22:23.865Z,9.54
2023-11-16T13:24:53.769Z,9.64
2023-11-16T13:27:28.463Z,9.60
2023-11-16T13:30:05.353Z,9.51
2023-11-16T13:32:31.956Z,9.54
2023-11-16T13:34:58.574Z,9.60
2023-11-16T13:37:25.379Z,9.55
2023-11-16T13:39:51.988Z,9.51
2023-11-16T13:42:29.486Z,9.51
2023-11-16T13:44:59.085Z,9.48
2023-11-16T13:47:56.856Z,9.44
2023-11-16T13:50:45.381Z,9.49
2023-11-16T13:53:12.001Z,9.55
2023-11-16T13:55:38.613Z,9.49
2023-11-16T13:58:05.361Z,9.47
2023-11-16T14:00:33.682Z,9.45
2023-11-16T14:03:00.634Z,9.42
2023-11-16T14:05:27.480Z,9.44
2023-11-16T14:07:57.098Z,9.31
2023-11-16T14:10:25.407Z,9.31
2023-11-16T14:12:55.922Z,9.28
2023-11-16T14:15:25.758Z,9.39
2023-11-16T14:17:53.110Z,9.31
2023-11-16T14:20:19.857Z,9.14
2023-11-16T14:22:46.443Z,8.99
2023-11-16T14:25:13.159Z,8.81
2023-11-16T14:27:39.872Z,8.91
2023-11-16T14:30:07.478Z,9.08
2023-11-16T14:32:35.123Z,8.97
2023-11-16T14:35:14.628Z,9.07
2023-11-16T14:37:47.695Z,8.88
2023-11-16T14:40:14.993Z,8.81
2023-11-16T14:42:41.721Z,8.73
2023-11-16T14:45:09.812Z,8.67
2023-11-16T14:47:40.072Z,8.52
2023-11-16T14:50:10.406Z,8.23
2023-11-16T14:52:38.092Z,8.05
2023-11-16T14:55:08.873Z,8.26
2023-11-16T14:57:39.136Z,8.28
2023-11-16T15:00:07.601Z,8.21
2023-11-16T15:02:34.356Z,8.01
2023-11-16T15:05:08.646Z,8.11
2023-11-16T15:07:40.477Z,8.05
2023-11-16T15:10:12.213Z,8.14
2023-11-16T15:12:39.490Z,7.61
2023-11-16T15:15:06.741Z,8.01
2023-11-16T15:17:33.508Z,8.00
2023-11-16T15:20:09.042Z,7.85
2023-11-16T15:22:48.133Z,7.63
2023-11-16T15:25:17.741Z,7.72
2023-11-16T15:27:45.348Z,7.73
2023-11-16T15:30:14.661Z,7.66
2023-11-16T15:32:41.360Z,7.62
2023-11-16T15:35:08.859Z,7.71
2023-11-16T15:37:35.662Z,7.57
2023-11-16T15:40:02.576Z,7.44
2023-11-16T15:42:29.362Z,7.38
2023-11-16T15:44:56.366Z,7.45
2023-11-16T15:47:23.910Z,7.44
2023-11-16T15:49:51.181Z,7.39
2023-11-16T15:52:17.840Z,7.30
2023-11-16T15:54:47.223Z,7.46
2023-11-16T15:57:17.430Z,7.32
2023-11-16T15:59:44.084Z,7.38
2023-11-16T16:02:11.711Z,7.25
2023-11-16T16:04:38.562Z,7.23
2023-11-16T16:07:08.153Z,7.14
2023-11-16T16:09:35.313Z,7.12
2023-11-16T16:12:01.900Z,7.23
2023-11-16T16:14:28.403Z,7.11
2023-11-16T16:16:58.110Z,6.97
2023-11-16T16:19:26.422Z,7.09
2023-11-16T16:21:53.394Z,6.90
2023-11-16T16:24:20.089Z,6.69
2023-11-16T16:26:46.686Z,6.64
2023-11-16T16:29:14.640Z,6.80
2023-11-16T16:31:42.561Z,6.78
2023-11-16T16:34:15.040Z,6.77
2023-11-16T16:36:42.284Z,6.80
2023-11-16T16:39:14.557Z,6.89
2023-11-16T16:41:46.837Z,6.91
2023-11-16T16:44:13.502Z,6.98
2023-11-16T16:46:43.148Z,6.83
2023-11-16T16:49:12.933Z,6.71
2023-11-16T16:51:41.244Z,6.71
2023-11-16T16:54:14.303Z,6.75
2023-11-16T16:56:42.022Z,6.78
2023-11-16T16:59:10.385Z,6.89
2023-11-16T17:01:38.360Z,6.91
2023-11-16T17:04:09.918Z,6.87
2023-11-16T17:06:38.190Z,6.66
2023-11-16T17:09:05.034Z,6.72
2023-11-16T17:11:31.682Z,6.77
2023-11-16T17:13:58.962Z,6.71
2023-11-16T17:16:26.363Z,6.77
2023-11-16T17:18:54.660Z,6.67
2023-11-16T17:21:24.341Z,6.83
2023-11-16T17:23:57.038Z,6.77
2023-11-16T17:26:37.911Z,6.73
2023-11-16T17:29:04.971Z,6.81
2023-11-16T17:31:39.769Z,6.81
2023-11-16T17:34:12.421Z,6.78
2023-11-16T17:36:39.298Z,6.86
2023-11-16T17:39:09.257Z,6.83
2023-11-16T17:41:36.886Z,6.81
2023-11-16T17:44:04.984Z,6.83
2023-11-16T17:46:32.089Z,6.82
2023-11-16T17:49:01.348Z,6.76
2023-11-16T17:51:32.871Z,6.77
2023-11-16T17:53:59.442Z,6.64
2023-11-16T17:56:26.299Z,6.64
2023-11-16T17:58:54.195Z,6.78
2023-11-16T18:01:21.007Z,6.78
2023-11-16T18:03:53.669Z,6.78
2023-11-16T18:06:20.279Z,6.83
2023-11-16T18:08:46.871Z,6.85
2023-11-16T18:11:13.773Z,6.75
2023-11-16T18:13:41.491Z,6.77
2023-11-16T18:16:08.612Z,6.87
2023-11-16T18:18:37.758Z,6.68
2023-11-16T18:21:05.130Z,6.60
2023-11-16T18:23:31.733Z,6.65
2023-11-16T18:26:00.405Z,6.76
2023-11-16T18:28:28.112Z,6.72
2023-11-16T18:30:57.130Z,6.68
2023-11-16T18:33:24.524Z,6.56
2023-11-16T18:35:55.272Z,6.70
2023-11-16T18:38:24.166Z,6.59
2023-11-16T18:40:50.793Z,6.64
2023-11-16T18:43:20.692Z,6.52
2023-11-16T18:45:49.910Z,6.43
2023-11-16T18:48:16.981Z,6.34
2023-11-16T18:50:44.871Z,6.38
2023-11-16T18:53:13.109Z,6.31
2023-11-16T18:55:41.040Z,6.33
2023-11-16T18:58:11.570Z,6.41
2023-11-16T19:00:40.166Z,6.43
2023-11-16T19:03:16.106Z,6.34
2023-11-16T19:05:50.154Z,6.21
2023-11-16T19:08:20.489Z,6.16
2023-11-16T19:10:47.868Z,6.24
2023-11-16T19:13:15.431Z,6.20
2023-11-16T19:15:42.433Z,6.20
2023-11-16T19:18:11.432Z,6.11
2023-11-16T19:20:40.048Z,6.09
2023-11-16T19:23:14.407Z,6.11
2023-11-16T19:25:47.621Z,6.09
2023-11-16T19:28:14.390Z,6.20
2023-11-16T19:30:40.998Z,6.22
2023-11-16T19:33:08.009Z,6.25
2023-11-16T19:35:34.582Z,6.24
2023-11-16T19:38:01.315Z,6.21
2023-11-16T19:40:34.522Z,6.14
2023-11-16T19:43:07.833Z,6.23
2023-11-16T19:45:37.100Z,6.25
2023-11-16T19:48:03.997Z,6.29
2023-11-16T19:50:31.673Z,6.27
2023-11-16T19:52:58.217Z,6.15
2023-11-16T19:55:25.408Z,6.17
2023-11-16T19:57:53.221Z,6.22
2023-11-16T20:00:23.910Z,6.18
2023-11-16T20:02:52.022Z,6.11
2023-11-16T20:05:20.114Z,6.14
2023-11-16T20:07:46.670Z,6.08
2023-11-16T20:10:16.329Z,6.17
2023-11-16T20:12:43.064Z,6.10
2023-11-16T20:15:11.893Z,6.14
2023-11-16T20:17:42.339Z,6.08
2023-11-16T20:20:15.575Z,6.20
2023-11-16T20:22:43.344Z,6.07
2023-11-16T20:25:15.357Z,6.01
2023-11-16T20:27:42.149Z,6.08
2023-11-16T20:30:12.744Z,6.13
2023-11-16T20:32:40.644Z,6.07
2023-11-16T20:35:10.156Z,6.08
2023-11-16T20:37:45.091Z,6.08
2023-11-16T20:40:18.141Z,6.11
2023-11-16T20:42:46.508Z,6.07
2023-11-16T20:45:15.562Z,5.94
2023-11-16T20:47:43.435Z,5.90
2023-11-16T20:50:11.668Z,5.95
2023-11-16T20:52:38.845Z,5.91
2023-11-16T20:55:06.737Z,6.00
2023-11-16T20:57:34.694Z,5.95
2023-11-16T21:00:09.767Z,5.93
2023-11-16T21:02:41.444Z,5.91
2023-11-16T21:05:08.874Z,5.93
2023-11-16T21:07:36.274Z,5.78
2023-11-16T21:10:04.264Z,5.90
2023-11-16T21:12:32.394Z,5.96
2023-11-16T21:14:59.760Z,6.00
2023-11-16T21:17:28.669Z,5.97
2023-11-16T21:19:55.544Z,5.86
2023-11-16T21:22:22.052Z,5.84
2023-11-16T21:24:48.649Z,5.82
2023-11-16T21:27:15.210Z,5.76
2023-11-16T21:29:45.143Z,5.73
2023-11-16T21:32:12.921Z,5.81
2023-11-16T21:34:41.545Z,5.80
2023-11-16T21:37:09.994Z,5.84
2023-11-16T21:39:38.229Z,5.77
2023-11-16T21:42:06.553Z,5.81
2023-11-16T21:44:33.757Z,5.83
2023-11-16T21:47:03.592Z,5.88
2023-11-16T21:49:30.957Z,5.81
2023-11-16T21:51:59.036Z,5.78
2023-11-16T21:54:26.904Z,5.72
2023-11-16T21:56:55.108Z,5.75
2023-11-16T21:59:22.729Z,5.82
2023-11-16T22:01:50.096Z,5.68
2023-11-16T22:04:18.251Z,5.69
2023-11-16T22:06:45.269Z,5.70
2023-11-16T22:09:13.705Z,5.70
2023-11-16T22:11:40.756Z,5.68
2023-11-16T22:14:10.875Z,5.73
2023-11-16T22:16:37.615Z,5.64
2023-11-16T22:19:05.322Z,5.67
2023-11-16T22:21:34.584Z,5.69
2023-11-16T22:24:01.406Z,5.64
2023-11-16T22:26:30.058Z,5.71
2023-11-16T22:28:56.946Z,5.83
2023-11-16T22:31:23.619Z,5.84
2023-11-16T22:33:50.669Z,5.78
2023-11-16T22:36:18.125Z,5.91
2023-11-16T22:38:44.920Z,5.90
2023-11-16T22:41:14.384Z,5.93
2023-11-16T22:43:41.872Z,5.90
2023-11-16T22:46:08.663Z,5.85
2023-11-16T22:48:36.002Z,6.00
2023-11-16T22:51:02.783Z,5.96
2023-11-16T22:53:29.365Z,5.98
2023-11-16T22:55:55.904Z,5.98
2023-11-16T22:58:22.603Z,5.95
2023-11-16T23:00:50.622Z,6.04
2023-11-16T23:03:18.580Z,5.91
2023-11-16T23:05:49.215Z,5.95
2023-11-16T23:08:17.610Z,6.01
2023-11-16T23:10:44.191Z,5.96
2023-11-16T23:13:12.742Z,6.00
2023-11-16T23:15:40.243Z,5.91
2023-11-16T23:18:10.895Z,6.01
2023-11-16T23:20:37.860Z,5.99
2023-11-16T23:23:06.226Z,5.98
2023-11-16T23:25:36.586Z,5.95
2023-11-16T23:28:03.674Z,5.95
2023-11-16T23:30:30.304Z,5.82
2023-11-16T23:32:57.141Z,5.98
2023-11-16T23:35:24.976Z,5.99
2023-11-16T23:37:51.802Z,5.98
2023-11-16T23:40:19.749Z,5.91
2023-11-16T23:42:47.416Z,5.97
2023-11-16T23:45:15.836Z,6.01
2023-11-16T23:47:43.975Z,5.95
2023-11-16T23:50:11.152Z,5.94
2023-11-16T23:52:38.512Z,5.93
2023-11-16T23:55:07.637Z,5.87
2023-11-16T23:57:34.178Z,5.93
